Time;durP1;ratioP1;P1;durP2;ratioP2;P2;SDS_P1;SDS_P2;PMS_P1;PMS_P2;Temp;Humidity;BMP_temperature;BMP_pressure;BME280_temperature;BME280_humidity;BME280_pressure;Samples;Min_cycle;Max_cycle;Signal;HPM_P1;HPM_P2
2021/03/18 00:00:53;;;;;;;3.83;3.53;;;18.70;40.00;;;;;;5009525;28;20477;-72
2021/03/18 00:03:21;;;;;;;2.77;2.60;;;18.70;40.00;;;;;;5044294;28;20473;-72
2021/03/18 00:05:48;;;;;;;2.87;2.67;;;18.70;40.10;;;;;;5052634;28;20478;-72
2021/03/18 00:08:14;;;;;;;2.80;2.70;;;18.70;40.00;;;;;;5055163;28;20535;-72
2021/03/18 00:10:40;;;;;;;2.17;2.07;;;18.70;40.10;;;;;;5059935;28;20481;-71
2021/03/18 00:13:07;;;;;;;2.63;2.43;;;18.70;40.00;;;;;;5058523;28;20496;-71
2021/03/18 00:15:33;;;;;;;3.47;2.37;;;18.70;40.10;;;;;;5073112;28;20497;-71
2021/03/18 00:17:59;;;;;;;4.73;2.33;;;18.70;40.00;;;;;;5070824;28;21394;-71
2021/03/18 00:20:26;;;;;;;2.60;2.50;;;18.70;40.20;;;;;;5051906;28;20497;-72
2021/03/18 00:22:52;;;;;;;2.80;2.70;;;18.70;40.10;;;;;;5059017;28;20594;-71
2021/03/18 00:25:18;;;;;;;2.40;2.20;;;18.70;40.20;;;;;;5043000;28;22088;-71
2021/03/18 00:27:45;;;;;;;2.93;2.53;;;18.70;40.20;;;;;;5063230;28;20850;-71
2021/03/18 00:30:13;;;;;;;2.93;2.73;;;18.70;40.30;;;;;;5063732;28;20519;-73
2021/03/18 00:32:39;;;;;;;3.80;2.63;;;18.70;40.10;;;;;;5066592;28;20538;-72
2021/03/18 00:35:29;;;;;;;3.00;2.80;;;18.70;40.10;;;;;;5051166;28;20937;-73
2021/03/18 00:37:56;;;;;;;3.07;2.87;;;18.70;40.00;;;;;;5011243;28;20522;-72
2021/03/18 00:40:24;;;;;;;2.87;2.70;;;18.70;39.80;;;;;;5039776;28;20496;-72
2021/03/18 00:42:51;;;;;;;2.83;2.40;;;18.70;39.90;;;;;;5029294;28;20481;-72
2021/03/18 00:45:17;;;;;;;3.40;3.10;;;18.70;39.80;;;;;;5050012;28;20481;-72
2021/03/18 00:47:44;;;;;;;2.77;2.57;;;18.70;40.00;;;;;;5038823;28;20496;-72
2021/03/18 00:50:11;;;;;;;2.93;2.63;;;18.70;39.70;;;;;;5052912;28;20565;-72
2021/03/18 00:52:38;;;;;;;2.73;2.53;;;18.70;39.90;;;;;;5063126;28;20464;-72
2021/03/18 00:55:06;;;;;;;3.27;2.87;;;18.70;39.70;;;;;;5048866;28;20590;-71
2021/03/18 00:57:32;;;;;;;2.87;2.30;;;18.70;39.80;;;;;;5041716;28;20482;-71
2021/03/18 00:59:58;;;;;;;2.80;2.60;;;18.70;40.10;;;;;;5047641;28;20523;-72
2021/03/18 01:02:24;;;;;;;3.40;2.77;;;18.70;40.00;;;;;;5052907;28;20482;-72
2021/03/18 01:04:51;;;;;;;2.73;2.53;;;18.70;40.10;;;;;;5057337;28;20478;-71
2021/03/18 01:07:17;;;;;;;2.90;2.70;;;18.70;40.30;;;;;;5057911;28;20591;-71
2021/03/18 01:09:43;;;;;;;2.90;2.73;;;18.70;40.50;;;;;;5051958;28;20532;-72
2021/03/18 01:12:10;;;;;;;3.00;2.80;;;18.70;40.40;;;;;;5041108;28;20492;-72
2021/03/18 01:14:36;;;;;;;3.33;2.37;;;18.70;40.10;;;;;;5072189;28;20483;-72
2021/03/18 01:17:02;;;;;;;3.07;2.67;;;18.70;40.20;;;;;;5049290;28;20486;-72
2021/03/18 01:19:28;;;;;;;2.40;2.20;;;18.70;40.00;;;;;;5056436;28;20477;-72
2021/03/18 01:21:56;;;;;;;2.83;2.73;;;18.70;39.90;;;;;;5058884;28;20479;-72
2021/03/18 01:24:22;;;;;;;2.97;2.77;;;18.70;40.20;;;;;;5040490;28;20475;-72
2021/03/18 01:26:48;;;;;;;2.80;2.50;;;18.70;39.70;;;;;;5067321;28;20581;-73
2021/03/18 01:29:15;;;;;;;2.80;2.70;;;18.70;39.70;;;;;;5050809;28;20478;-73
2021/03/18 01:31:42;;;;;;;3.10;2.80;;;18.70;39.90;;;;;;5057165;28;20482;-73
2021/03/18 01:34:08;;;;;;;5.30;3.00;;;18.70;40.10;;;;;;5050658;28;20539;-73
2021/03/18 01:36:35;;;;;;;3.40;3.10;;;18.70;40.10;;;;;;5033730;28;20522;-72
2021/03/18 01:39:01;;;;;;;2.50;2.30;;;18.70;40.30;;;;;;5052537;28;20555;-72
2021/03/18 01:41:27;;;;;;;2.70;2.60;;;18.70;40.40;;;;;;5042192;28;20836;-72
2021/03/18 01:43:54;;;;;;;2.20;2.10;;;18.70;40.40;;;;;;5055389;28;20865;-73
2021/03/18 01:46:21;;;;;;;2.73;2.53;;;18.70;40.50;;;;;;5037190;28;20476;-73
2021/03/18 01:48:47;;;;;;;2.67;2.50;;;18.70;40.40;;;;;;5046436;28;20515;-72
2021/03/18 01:51:14;;;;;;;2.53;2.40;;;18.70;40.30;;;;;;5053252;28;20854;-72
2021/03/18 01:53:40;;;;;;;3.90;3.60;;;18.70;40.30;;;;;;5063479;28;20477;-73
2021/03/18 01:56:06;;;;;;;3.13;2.93;;;18.70;40.00;;;;;;5056137;28;20489;-72
2021/03/18 01:58:32;;;;;;;2.47;2.37;;;18.70;40.20;;;;;;5054783;28;20502;-71
2021/03/18 02:01:00;;;;;;;2.90;2.70;;;18.70;40.00;;;;;;5040461;28;20486;-71
2021/03/18 02:03:27;;;;;;;2.83;2.73;;;18.70;39.70;;;;;;5047663;28;20484;-72
2021/03/18 02:05:54;;;;;;;2.33;2.23;;;18.70;39.60;;;;;;5056075;27;22600;-72
2021/03/18 02:08:20;;;;;;;2.60;2.47;;;18.70;39.70;;;;;;5067571;28;20529;-72
2021/03/18 02:10:46;;;;;;;2.03;1.93;;;18.70;39.60;;;;;;5056019;28;20469;-72
2021/03/18 02:13:13;;;;;;;2.27;2.17;;;18.70;39.70;;;;;;5043741;28;20489;-72
2021/03/18 02:15:41;;;;;;;2.10;2.00;;;18.70;39.80;;;;;;5056763;28;20479;-72
2021/03/18 02:18:09;;;;;;;1.80;1.70;;;18.70;39.60;;;;;;5067612;28;20623;-72
2021/03/18 02:21:29;;;;;;;1.70;1.70;;;18.70;39.80;;;;;;5036957;28;20521;-72
2021/03/18 02:24:27;;;;;;;2.00;1.90;;;18.70;40.20;;;;;;5056748;28;20485;-72
2021/03/18 02:27:37;;;;;;;1.93;1.83;;;18.70;39.50;;;;;;5055973;28;20471;-72
2021/03/18 02:30:28;;;;;;;1.77;1.67;;;18.70;39.50;;;;;;5045057;28;20486;-72
2021/03/18 02:33:32;;;;;;;1.80;1.70;;;18.70;39.60;;;;;;5056262;28;20473;-72
2021/03/18 02:36:00;;;;;;;1.33;1.33;;;18.70;39.80;;;;;;5060134;28;20471;-72
2021/03/18 02:38:29;;;;;;;1.80;1.70;;;18.70;40.50;;;;;;5046918;28;21578;-72
2021/03/18 02:40:57;;;;;;;1.27;1.27;;;18.70;40.50;;;;;;5060837;28;20836;-72
2021/03/18 02:43:23;;;;;;;1.47;1.37;;;18.70;40.50;;;;;;5045953;28;20470;-73
2021/03/18 02:45:50;;;;;;;1.40;1.40;;;18.70;40.50;;;;;;5052843;28;21004;-73
2021/03/18 02:48:18;;;;;;;1.03;1.03;;;18.70;40.50;;;;;;5051496;28;20492;-72
2021/03/18 02:50:44;;;;;;;1.20;1.20;;;18.70;40.60;;;;;;5027619;28;21561;-70
2021/03/18 02:53:11;;;;;;;0.80;0.80;;;18.70;40.50;;;;;;5054703;28;20497;-71
2021/03/18 02:55:38;;;;;;;1.13;1.13;;;18.70;40.50;;;;;;5055576;28;21115;-72
2021/03/18 02:58:04;;;;;;;1.23;1.23;;;18.70;40.50;;;;;;5039049;28;20556;-72
2021/03/18 03:00:30;;;;;;;1.10;1.10;;;18.70;40.40;;;;;;5061742;28;20873;-71
2021/03/18 03:02:56;;;;;;;1.50;1.40;;;18.70;40.20;;;;;;5058781;28;20485;-71
2021/03/18 03:05:23;;;;;;;1.13;1.13;;;18.70;40.40;;;;;;5055063;28;20481;-72
2021/03/18 03:07:49;;;;;;;0.80;0.80;;;18.70;40.40;;;;;;5033869;28;20488;-72
2021/03/18 03:10:18;;;;;;;1.33;1.20;;;18.70;40.50;;;;;;5038770;28;21010;-71
2021/03/18 03:12:44;;;;;;;0.93;0.93;;;18.70;40.50;;;;;;5047758;28;21344;-72
2021/03/18 03:15:11;;;;;;;1.53;1.53;;;18.70;40.40;;;;;;5071073;28;20481;-72
2021/03/18 03:17:37;;;;;;;1.00;1.00;;;18.70;40.30;;;;;;5050263;27;20543;-73
2021/03/18 03:20:04;;;;;;;1.57;1.53;;;18.70;40.30;;;;;;5055872;28;20492;-71
2021/03/18 03:22:31;;;;;;;1.83;1.60;;;18.70;40.40;;;;;;5030871;28;20587;-71
2021/03/18 03:24:57;;;;;;;1.30;1.30;;;18.70;40.50;;;;;;5017569;28;20487;-72
2021/03/18 03:27:24;;;;;;;1.33;1.33;;;18.70;40.10;;;;;;5052026;28;20486;-72
2021/03/18 03:29:50;;;;;;;1.17;1.17;;;18.70;40.40;;;;;;5052556;28;20474;-72
2021/03/18 03:32:17;;;;;;;0.90;0.90;;;18.70;40.30;;;;;;5056718;28;20500;-71
2021/03/18 03:34:43;;;;;;;1.33;1.23;;;18.70;39.70;;;;;;5051946;28;21481;-71
2021/03/18 03:37:09;;;;;;;1.47;1.13;;;18.70;39.90;;;;;;5055869;28;20503;-72
2021/03/18 03:39:36;;;;;;;1.40;1.40;;;18.70;39.70;;;;;;5055775;28;20896;-72
2021/03/18 03:42:02;;;;;;;1.10;1.10;;;18.70;39.40;;;;;;5053328;28;20494;-71
2021/03/18 03:44:29;;;;;;;1.70;1.63;;;18.70;39.70;;;;;;5025861;28;20500;-71
2021/03/18 03:46:55;;;;;;;1.10;1.10;;;18.70;40.30;;;;;;5059294;28;20478;-72
2021/03/18 03:49:21;;;;;;;1.00;1.00;;;18.70;40.00;;;;;;5052443;28;20470;-71
2021/03/18 03:51:52;;;;;;;1.03;1.03;;;18.70;40.10;;;;;;5054034;28;20619;-71
2021/03/18 03:54:19;;;;;;;1.10;1.10;;;18.70;40.30;;;;;;5049589;28;20477;-72
2021/03/18 03:56:49;;;;;;;1.07;1.07;;;18.70;40.30;;;;;;5050297;28;20591;-72
2021/03/18 03:59:18;;;;;;;1.03;1.03;;;18.70;40.30;;;;;;5030530;28;20478;-72
2021/03/18 04:01:45;;;;;;;1.37;1.27;;;18.70;40.20;;;;;;5059443;28;20535;-72
2021/03/18 04:04:13;;;;;;;1.13;1.03;;;18.70;40.10;;;;;;5056884;28;20487;-72
2021/03/18 04:06:39;;;;;;;1.47;1.47;;;18.70;40.00;;;;;;5061863;28;20494;-72
2021/03/18 04:09:06;;;;;;;1.30;1.30;;;18.70;39.80;;;;;;5032847;28;20491;-72
2021/03/18 04:11:33;;;;;;;1.03;1.03;;;18.70;39.60;;;;;;5046321;28;20505;-71
2021/03/18 04:13:59;;;;;;;1.10;1.10;;;18.70;39.50;;;;;;5052365;28;20490;-72
2021/03/18 04:16:26;;;;;;;1.20;1.13;;;18.80;39.50;;;;;;5068440;28;20488;-72
2021/03/18 04:18:54;;;;;;;1.50;1.50;;;18.80;39.30;;;;;;5065315;28;21115;-72
2021/03/18 04:21:20;;;;;;;1.67;1.30;;;18.90;39.30;;;;;;5055183;28;20480;-71
2021/03/18 04:23:46;;;;;;;0.87;0.87;;;18.90;39.30;;;;;;5044760;28;20511;-71
2021/03/18 04:26:12;;;;;;;1.10;1.10;;;18.90;39.30;;;;;;5068832;28;20547;-70
2021/03/18 04:28:39;;;;;;;1.40;1.40;;;18.90;39.30;;;;;;5055072;28;20484;-71
2021/03/18 04:31:05;;;;;;;1.40;1.40;;;19.00;39.30;;;;;;5069549;28;20482;-72
2021/03/18 04:33:31;;;;;;;1.23;1.23;;;19.00;39.10;;;;;;5051174;28;20474;-71
2021/03/18 04:35:59;;;;;;;1.10;1.10;;;19.10;39.10;;;;;;5055827;28;20921;-72
2021/03/18 04:38:25;;;;;;;1.27;1.27;;;19.10;39.00;;;;;;5050455;28;20478;-72
2021/03/18 04:40:51;;;;;;;1.17;1.17;;;19.10;39.20;;;;;;5078108;28;20508;-72
2021/03/18 04:43:17;;;;;;;1.27;1.10;;;19.10;39.20;;;;;;5053169;28;21372;-71
2021/03/18 04:45:44;;;;;;;1.40;1.30;;;19.10;39.50;;;;;;5073249;28;21025;-72
2021/03/18 04:48:10;;;;;;;1.40;1.30;;;19.00;39.20;;;;;;5047513;28;20528;-72
2021/03/18 04:50:36;;;;;;;1.37;1.37;;;19.00;39.30;;;;;;5052557;28;20484;-73
2021/03/18 04:53:03;;;;;;;1.20;1.17;;;19.00;40.10;;;;;;5071913;28;20486;-71
2021/03/18 04:55:29;;;;;;;1.10;1.10;;;19.00;39.30;;;;;;5031322;28;20485;-72
2021/03/18 04:57:58;;;;;;;1.00;1.00;;;19.00;39.30;;;;;;5019293;28;20485;-72
2021/03/18 05:00:24;;;;;;;1.27;1.20;;;19.00;39.30;;;;;;5049940;28;21027;-72
2021/03/18 05:02:51;;;;;;;0.93;0.93;;;19.00;39.40;;;;;;5040453;28;20520;-71
2021/03/18 05:05:18;;;;;;;1.00;1.00;;;19.00;39.50;;;;;;5053822;28;20537;-72
2021/03/18 05:07:45;;;;;;;1.20;1.20;;;19.00;39.40;;;;;;5058495;28;20486;-70
2021/03/18 05:10:14;;;;;;;1.20;1.20;;;19.00;39.50;;;;;;5053835;28;20504;-72
2021/03/18 05:12:40;;;;;;;1.67;1.57;;;18.90;39.60;;;;;;5053185;28;20488;-72
2021/03/18 05:15:07;;;;;;;1.37;1.33;;;19.00;39.60;;;;;;5064323;28;20477;-70
2021/03/18 05:17:34;;;;;;;1.33;1.20;;;19.00;39.50;;;;;;5057428;28;20490;-70
2021/03/18 05:20:00;;;;;;;1.70;1.60;;;19.00;39.40;;;;;;5059818;28;20485;-71
2021/03/18 05:22:26;;;;;;;1.17;1.17;;;19.00;39.30;;;;;;5057715;28;20489;-72
2021/03/18 05:24:52;;;;;;;1.70;1.60;;;19.00;39.30;;;;;;5054282;28;20513;-71
2021/03/18 05:27:19;;;;;;;1.23;1.13;;;19.00;39.20;;;;;;5057884;28;20490;-72
2021/03/18 05:29:46;;;;;;;1.47;1.40;;;19.10;39.40;;;;;;5055388;28;20519;-71
2021/03/18 05:32:12;;;;;;;1.37;1.27;;;19.10;40.10;;;;;;5059132;28;20504;-71
2021/03/18 05:34:38;;;;;;;1.57;1.50;;;19.10;39.30;;;;;;5057005;28;20489;-72
2021/03/18 05:37:04;;;;;;;2.30;2.20;;;19.10;39.30;;;;;;5059705;28;21483;-71
2021/03/18 05:39:30;;;;;;;1.50;1.40;;;19.10;39.30;;;;;;5055572;28;20489;-71
2021/03/18 05:41:56;;;;;;;2.13;1.93;;;19.20;39.40;;;;;;5046329;28;20494;-71
2021/03/18 05:44:23;;;;;;;1.90;1.80;;;19.10;39.20;;;;;;5062851;28;20497;-71
2021/03/18 05:46:49;;;;;;;2.07;1.87;;;19.20;39.20;;;;;;5058415;28;20492;-72
2021/03/18 05:49:15;;;;;;;2.97;2.23;;;19.20;39.30;;;;;;5066359;28;20502;-72
2021/03/18 05:51:43;;;;;;;1.90;1.80;;;19.10;39.20;;;;;;5054101;28;20482;-72
2021/03/18 05:54:10;;;;;;;1.97;1.87;;;19.10;39.40;;;;;;5044663;28;20959;-71
2021/03/18 05:56:36;;;;;;;1.70;1.60;;;19.10;39.40;;;;;;5048042;28;20486;-71
2021/03/18 05:59:02;;;;;;;1.80;1.70;;;19.10;39.30;;;;;;5053206;28;20481;-72
2021/03/18 06:01:29;;;;;;;2.43;2.33;;;19.10;39.40;;;;;;5058689;28;21047;-71
2021/03/18 06:03:55;;;;;;;2.13;2.03;;;19.10;39.30;;;;;;5058093;28;20472;-71
2021/03/18 06:06:21;;;;;;;2.13;2.03;;;19.10;39.30;;;;;;5060964;28;21316;-71
2021/03/18 06:08:48;;;;;;;3.40;1.77;;;19.10;39.30;;;;;;5060538;28;21053;-71
2021/03/18 06:11:14;;;;;;;2.87;2.67;;;19.10;39.30;;;;;;5046724;28;21008;-70
2021/03/18 06:13:40;;;;;;;3.57;2.40;;;19.00;39.30;;;;;;5048490;28;20525;-72
2021/03/18 06:16:07;;;;;;;9.47;2.20;;;19.10;40.10;;;;;;5079753;28;20485;-72
2021/03/18 06:18:34;;;;;;;2.10;1.90;;;19.10;39.70;;;;;;5058076;28;20465;-72
2021/03/18 06:21:00;;;;;;;2.73;2.53;;;19.10;39.50;;;;;;5058069;28;20485;-73
2021/03/18 06:23:27;;;;;;;2.63;2.40;;;19.10;39.30;;;;;;5047356;28;20603;-72
2021/03/18 06:25:53;;;;;;;4.83;2.60;;;19.10;39.20;;;;;;5053238;28;20478;-72
2021/03/18 06:28:21;;;;;;;2.60;2.40;;;19.10;39.10;;;;;;5042770;28;20484;-72
2021/03/18 06:31:05;;;;;;;2.90;2.67;;;19.10;39.20;;;;;;5038462;28;20496;-71
2021/03/18 06:33:32;;;;;;;2.07;1.87;;;19.10;39.10;;;;;;5027231;27;21183;-72
2021/03/18 06:35:59;;;;;;;3.30;3.10;;;19.10;39.00;;;;;;5085789;27;20550;-72
2021/03/18 06:38:27;;;;;;;2.80;2.60;;;19.10;39.10;;;;;;5060762;28;20611;-71
2021/03/18 06:40:53;;;;;;;1.90;1.80;;;19.10;39.10;;;;;;5054408;28;20493;-71
2021/03/18 06:43:19;;;;;;;3.40;2.37;;;19.10;39.20;;;;;;5057101;28;20501;-72
2021/03/18 06:45:45;;;;;;;2.23;2.13;;;19.10;38.90;;;;;;5060804;28;20477;-72
2021/03/18 06:48:13;;;;;;;2.87;2.60;;;19.10;38.90;;;;;;5057288;28;20558;-73
2021/03/18 06:50:40;;;;;;;3.70;3.40;;;19.10;39.00;;;;;;5045982;28;20481;-72
2021/03/18 06:53:18;;;;;;;2.80;2.60;;;19.10;39.00;;;;;;5047320;28;21121;-73
2021/03/18 06:55:44;;;;;;;3.43;2.10;;;19.10;39.00;;;;;;5019389;28;20648;-73
2021/03/18 06:58:14;;;;;;;2.63;2.43;;;19.10;39.10;;;;;;5049293;28;21546;-71
2021/03/18 07:00:41;;;;;;;2.03;1.93;;;19.10;39.30;;;;;;5038177;28;20481;-73
2021/03/18 07:03:08;;;;;;;3.50;1.97;;;19.10;39.40;;;;;;5023149;28;20496;-71
2021/03/18 07:05:37;;;;;;;2.20;2.10;;;19.10;39.50;;;;;;5075804;28;20899;-70
2021/03/18 07:08:04;;;;;;;2.30;2.20;;;19.10;39.50;;;;;;5055679;28;20543;-70
2021/03/18 07:10:35;;;;;;;3.07;1.60;;;19.10;39.60;;;;;;5057177;28;20486;-71
2021/03/18 07:13:17;;;;;;;2.97;1.90;;;19.10;39.50;;;;;;5039818;28;20508;-71
2021/03/18 07:15:43;;;;;;;2.30;2.10;;;19.20;39.40;;;;;;5052142;28;20490;-71
2021/03/18 07:18:11;;;;;;;2.17;2.03;;;19.30;39.40;;;;;;5052684;28;20485;-71
2021/03/18 07:20:37;;;;;;;1.93;1.83;;;19.30;39.40;;;;;;5042126;28;20480;-73
2021/03/18 07:23:11;;;;;;;2.10;2.00;;;19.40;39.40;;;;;;5055578;28;20519;-71
2021/03/18 07:25:45;;;;;;;1.67;1.53;;;19.40;39.40;;;;;;5056563;28;20472;-72
2021/03/18 07:28:14;;;;;;;2.73;2.13;;;19.40;39.60;;;;;;5053894;28;20507;-71
2021/03/18 07:30:40;;;;;;;1.87;1.77;;;19.40;39.50;;;;;;5062300;28;20462;-72
2021/03/18 07:33:07;;;;;;;1.90;1.70;;;19.40;39.60;;;;;;5070460;28;21059;-72
2021/03/18 07:35:33;;;;;;;1.87;1.77;;;19.40;39.60;;;;;;5063906;28;20474;-70
2021/03/18 07:37:59;;;;;;;7.03;1.73;;;19.30;39.70;;;;;;5063044;28;20485;-72
2021/03/18 07:40:27;;;;;;;1.70;1.60;;;19.30;39.80;;;;;;5036375;28;20496;-72
2021/03/18 07:42:54;;;;;;;1.67;1.50;;;19.20;39.90;;;;;;5032226;28;20486;-71
2021/03/18 07:45:22;;;;;;;6.03;2.00;;;19.20;39.90;;;;;;5050317;28;20496;-72
2021/03/18 07:47:48;;;;;;;2.10;1.73;;;19.20;40.00;;;;;;5035732;28;20486;-72
2021/03/18 07:50:15;;;;;;;1.97;1.87;;;19.20;40.10;;;;;;5037245;28;20492;-71
2021/03/18 07:52:44;;;;;;;1.80;1.70;;;19.20;40.20;;;;;;5064327;28;20474;-71
2021/03/18 07:55:12;;;;;;;1.70;1.60;;;19.10;40.30;;;;;;5039997;28;21263;-72
2021/03/18 07:57:41;;;;;;;1.60;1.50;;;19.10;40.40;;;;;;5048303;28;20520;-71
2021/03/18 08:00:10;;;;;;;1.63;1.50;;;19.10;40.40;;;;;;5066503;28;20476;-71
2021/03/18 08:02:36;;;;;;;2.53;2.33;;;19.10;40.50;;;;;;5057055;28;20573;-70
2021/03/18 08:05:02;;;;;;;2.10;1.70;;;19.10;40.40;;;;;;5034232;28;20855;-70
2021/03/18 08:07:42;;;;;;;1.80;1.70;;;19.10;40.40;;;;;;5061709;28;20901;-71
2021/03/18 08:10:10;;;;;;;1.80;1.70;;;19.20;40.50;;;;;;5059934;28;20517;-72
2021/03/18 08:12:44;;;;;;;2.17;2.00;;;19.20;40.50;;;;;;5049703;28;20529;-70
2021/03/18 08:15:43;;;;;;;2.17;1.80;;;19.20;40.40;;;;;;5055152;28;20489;-72
2021/03/18 08:18:31;;;;;;;2.30;2.20;;;19.20;40.50;;;;;;5045255;28;20489;-71
2021/03/18 08:21:01;;;;;;;1.87;1.67;;;19.20;40.50;;;;;;5045729;28;20483;-71
2021/03/18 08:23:48;;;;;;;1.33;1.23;;;19.10;40.50;;;;;;5027134;28;20565;-71
2021/03/18 08:26:21;;;;;;;2.40;1.47;;;19.10;41.40;;;;;;5034430;28;21073;-71
2021/03/18 08:28:48;;;;;;;2.20;2.00;;;19.10;40.70;;;;;;5054843;28;21017;-72
2021/03/18 08:31:16;;;;;;;1.67;1.57;;;19.00;40.70;;;;;;5056165;28;20468;-72
2021/03/18 08:33:45;;;;;;;1.70;1.60;;;19.00;40.70;;;;;;5060919;28;20480;-71
2021/03/18 08:36:22;;;;;;;1.40;1.30;;;19.00;40.80;;;;;;5061739;28;20482;-71
2021/03/18 08:38:49;;;;;;;1.33;1.23;;;19.00;40.80;;;;;;5044225;28;20484;-70
2021/03/18 08:41:26;;;;;;;1.73;1.63;;;19.00;41.00;;;;;;5050787;28;20474;-71
2021/03/18 08:44:16;;;;;;;1.83;1.50;;;19.00;41.00;;;;;;5027103;28;20515;-71
2021/03/18 08:46:46;;;;;;;2.13;1.60;;;19.00;41.10;;;;;;5031970;28;20929;-72
2021/03/18 08:49:20;;;;;;;3.43;1.70;;;19.00;41.00;;;;;;5039267;28;20485;-72
2021/03/18 08:51:47;;;;;;;2.43;1.70;;;19.00;41.10;;;;;;5021888;28;20592;-71
2021/03/18 08:54:49;;;;;;;1.70;1.60;;;19.00;41.10;;;;;;5054268;28;20582;-71
2021/03/18 08:57:26;;;;;;;2.40;1.40;;;19.00;41.10;;;;;;5048483;28;20494;-71
2021/03/18 08:59:53;;;;;;;1.67;1.57;;;19.00;41.10;;;;;;5039849;28;20493;-73
2021/03/18 09:02:21;;;;;;;1.83;1.43;;;18.90;41.00;;;;;;5062118;28;20499;-72
2021/03/18 09:04:48;;;;;;;1.30;1.30;;;19.00;41.10;;;;;;5062939;28;20480;-72
2021/03/18 09:07:15;;;;;;;1.30;1.30;;;19.00;41.00;;;;;;5039394;28;20485;-71
2021/03/18 09:09:42;;;;;;;1.63;1.53;;;19.00;41.00;;;;;;5035211;28;22047;-72
2021/03/18 09:12:08;;;;;;;2.20;1.13;;;19.00;41.00;;;;;;5041867;28;21305;-72
2021/03/18 09:14:34;;;;;;;1.03;1.03;;;19.00;41.00;;;;;;5061454;28;20477;-72
2021/03/18 09:17:04;;;;;;;1.20;1.20;;;19.10;41.00;;;;;;5070487;28;20515;-72
2021/03/18 09:19:33;;;;;;;1.67;1.57;;;19.10;40.90;;;;;;5058208;28;20980;-72
2021/03/18 09:22:00;;;;;;;1.10;1.10;;;19.10;40.90;;;;;;5018754;28;20489;-71
2021/03/18 09:24:33;;;;;;;1.20;1.10;;;19.10;41.00;;;;;;5040267;28;20494;-71
2021/03/18 09:27:04;;;;;;;1.10;1.10;;;19.10;41.10;;;;;;5054326;28;20923;-71
2021/03/18 09:29:30;;;;;;;1.40;1.30;;;19.10;41.10;;;;;;5066160;28;20513;-71
2021/03/18 09:32:01;;;;;;;1.23;1.23;;;19.10;41.00;;;;;;5066022;28;20480;-71
2021/03/18 09:34:32;;;;;;;1.83;1.30;;;19.20;41.00;;;;;;5040109;28;20561;-71
2021/03/18 09:36:58;;;;;;;1.00;1.00;;;19.30;41.00;;;;;;5022089;28;20509;-71
2021/03/18 09:39:24;;;;;;;0.90;0.90;;;19.30;40.80;;;;;;5032259;28;20555;-72
2021/03/18 09:41:50;;;;;;;1.30;1.30;;;19.30;40.70;;;;;;5045382;28;20486;-71
2021/03/18 09:44:17;;;;;;;0.97;0.97;;;19.40;40.70;;;;;;5049374;28;20478;-70
2021/03/18 09:46:47;;;;;;;1.20;1.07;;;19.40;40.70;;;;;;5048300;28;20552;-71
2021/03/18 09:49:13;;;;;;;1.07;1.07;;;19.40;40.80;;;;;;5049840;28;20474;-71
2021/03/18 09:51:41;;;;;;;1.30;1.20;;;19.30;40.70;;;;;;5054571;28;20485;-71
2021/03/18 09:54:09;;;;;;;2.17;1.20;;;19.30;40.90;;;;;;5053031;28;20472;-71
2021/03/18 09:56:35;;;;;;;1.30;1.20;;;19.30;40.80;;;;;;5048473;28;20509;-71
2021/03/18 09:59:02;;;;;;;1.00;1.00;;;19.30;40.90;;;;;;5033004;28;22060;-71
2021/03/18 10:01:30;;;;;;;0.90;0.90;;;19.30;40.80;;;;;;5052379;28;20489;-71
2021/03/18 10:03:57;;;;;;;1.23;1.13;;;19.30;40.90;;;;;;5041032;28;21499;-71
2021/03/18 10:06:27;;;;;;;1.10;1.10;;;19.30;41.00;;;;;;5045314;28;20489;-72
2021/03/18 10:08:54;;;;;;;1.03;1.03;;;19.30;41.00;;;;;;5041186;28;20483;-72
2021/03/18 10:11:22;;;;;;;0.70;0.70;;;19.30;41.00;;;;;;5035085;28;20488;-68
2021/03/18 10:13:48;;;;;;;1.03;0.80;;;19.30;42.50;;;;;;5049857;28;20478;-68
2021/03/18 10:16:14;;;;;;;3.20;1.10;;;19.40;43.20;;;;;;5065991;28;20488;-71
2021/03/18 10:18:41;;;;;;;2.33;1.17;;;19.50;43.50;;;;;;5044649;28;21074;-74
2021/03/18 10:21:07;;;;;;;1.23;1.00;;;19.60;43.00;;;;;;5048719;28;21244;-71
2021/03/18 10:23:34;;;;;;;0.93;0.93;;;19.60;41.50;;;;;;5040449;28;20505;-71
2021/03/18 10:26:01;;;;;;;0.87;0.70;;;19.60;40.90;;;;;;5006032;28;20477;-71
2021/03/18 10:28:29;;;;;;;0.90;0.90;;;19.70;40.80;;;;;;5040787;28;20600;-71
2021/03/18 10:30:55;;;;;;;0.90;0.90;;;19.70;40.80;;;;;;5050265;28;20478;-71
2021/03/18 10:33:22;;;;;;;1.00;0.83;;;19.70;40.60;;;;;;5052098;28;20478;-71
2021/03/18 10:35:58;;;;;;;3.00;0.90;;;19.70;40.60;;;;;;5043836;28;20836;-71
2021/03/18 10:38:28;;;;;;;0.90;0.90;;;19.70;40.70;;;;;;5045988;28;20480;-71
2021/03/18 10:40:54;;;;;;;0.90;0.90;;;19.60;40.70;;;;;;5049101;28;20474;-72
2021/03/18 10:43:23;;;;;;;0.80;0.80;;;19.60;40.70;;;;;;5048793;28;20486;-70
2021/03/18 10:45:49;;;;;;;1.70;1.60;;;19.60;40.80;;;;;;5048419;28;20484;-71
2021/03/18 10:48:19;;;;;;;1.63;0.83;;;19.50;40.70;;;;;;5055448;28;20840;-74
2021/03/18 10:50:45;;;;;;;0.90;0.70;;;19.50;40.80;;;;;;4998151;28;20943;-71
2021/03/18 10:53:11;;;;;;;0.70;0.70;;;19.50;41.00;;;;;;5038543;28;21065;-71
2021/03/18 10:55:38;;;;;;;0.90;0.80;;;19.50;40.90;;;;;;5049980;28;20484;-69
2021/03/18 10:58:05;;;;;;;1.10;1.10;;;19.50;40.90;;;;;;5026206;28;20543;-68
2021/03/18 11:00:34;;;;;;;5.93;1.20;;;19.60;42.70;;;;;;5046186;28;20522;-71
2021/03/18 11:03:07;;;;;;;1.70;1.00;;;19.60;42.10;;;;;;5031950;28;21389;-71
2021/03/18 11:05:44;;;;;;;1.03;1.03;;;19.60;41.20;;;;;;5046918;28;20485;-70
2021/03/18 11:08:11;;;;;;;0.90;0.87;;;19.60;41.20;;;;;;5047465;28;20492;-71
2021/03/18 11:10:42;;;;;;;0.80;0.80;;;19.60;41.10;;;;;;5031696;28;21013;-71
2021/03/18 11:13:09;;;;;;;0.80;0.80;;;19.50;41.00;;;;;;5029029;28;20540;-70
2021/03/18 11:15:50;;;;;;;0.87;0.87;;;19.50;40.80;;;;;;5025865;28;20569;-70
2021/03/18 11:18:16;;;;;;;1.13;0.90;;;19.50;40.80;;;;;;5057050;28;20483;-70
2021/03/18 11:20:43;;;;;;;0.70;0.70;;;19.50;40.80;;;;;;5037834;28;20590;-69
2021/03/18 11:23:11;;;;;;;1.73;1.20;;;19.50;40.70;;;;;;5048347;28;21205;-70
2021/03/18 11:25:37;;;;;;;0.97;0.80;;;19.50;40.70;;;;;;5048950;28;20480;-70
2021/03/18 11:28:03;;;;;;;1.07;0.90;;;19.50;40.50;;;;;;5061768;28;20486;-70
2021/03/18 11:30:31;;;;;;;2.80;1.10;;;19.50;40.50;;;;;;5049176;28;20482;-70
2021/03/18 11:33:15;;;;;;;1.23;0.90;;;19.50;40.40;;;;;;5019657;28;20510;-69
2021/03/18 11:35:42;;;;;;;1.30;1.30;;;19.40;40.40;;;;;;5025793;28;20528;-71
2021/03/18 11:38:08;;;;;;;1.20;0.97;;;19.40;40.50;;;;;;5070355;28;20490;-71
2021/03/18 11:40:34;;;;;;;1.47;1.37;;;19.30;40.60;;;;;;5036982;28;21086;-70
2021/03/18 11:43:00;;;;;;;2.87;1.47;;;19.30;40.60;;;;;;5036897;28;20513;-71
2021/03/18 11:45:26;;;;;;;1.77;1.20;;;19.30;41.30;;;;;;5058746;28;20494;-70
2021/03/18 11:47:52;;;;;;;3.23;0.93;;;19.20;41.20;;;;;;5048654;28;21253;-70
2021/03/18 11:50:20;;;;;;;2.03;1.40;;;19.20;41.10;;;;;;5065207;28;21244;-70
2021/03/18 11:52:46;;;;;;;0.90;0.90;;;19.20;41.10;;;;;;5054857;28;20476;-70
2021/03/18 11:55:12;;;;;;;1.43;0.97;;;19.20;41.00;;;;;;5049684;28;20478;-70
2021/03/18 11:57:38;;;;;;;1.30;1.30;;;19.20;40.90;;;;;;5049152;28;20478;-70
2021/03/18 12:00:07;;;;;;;2.70;1.50;;;19.20;41.00;;;;;;5045800;28;20492;-70
2021/03/18 12:02:33;;;;;;;2.27;1.20;;;19.20;41.00;;;;;;5029284;28;20465;-70
2021/03/18 12:04:59;;;;;;;1.23;1.23;;;19.20;40.90;;;;;;5042971;28;20596;-70
2021/03/18 12:07:26;;;;;;;1.27;1.27;;;19.20;40.90;;;;;;5056300;28;20477;-70
2021/03/18 12:09:53;;;;;;;1.47;1.30;;;19.10;40.70;;;;;;5041686;28;20522;-70
2021/03/18 12:12:19;;;;;;;1.27;1.17;;;19.20;40.80;;;;;;5035369;28;20485;-70
2021/03/18 12:14:45;;;;;;;2.17;1.20;;;19.10;40.80;;;;;;5059685;28;20470;-70
2021/03/18 12:17:11;;;;;;;2.60;1.43;;;19.10;40.70;;;;;;5059743;28;20476;-72
2021/03/18 12:19:37;;;;;;;1.43;1.33;;;19.20;40.90;;;;;;5033337;28;20544;-70
2021/03/18 12:22:03;;;;;;;1.40;1.13;;;19.20;43.90;;;;;;5029626;28;21709;-71
2021/03/18 12:24:30;;;;;;;2.40;1.23;;;19.20;42.90;;;;;;5023851;28;20483;-71
2021/03/18 12:26:57;;;;;;;2.40;1.37;;;19.20;42.10;;;;;;5054974;28;20544;-71
2021/03/18 12:29:23;;;;;;;2.40;1.70;;;19.20;41.80;;;;;;5024203;28;20751;-71
2021/03/18 12:31:49;;;;;;;2.37;1.30;;;19.20;41.60;;;;;;5056874;28;20480;-71
2021/03/18 12:34:15;;;;;;;1.40;1.30;;;19.30;41.60;;;;;;5035568;28;20479;-71
2021/03/18 12:36:41;;;;;;;0.97;0.97;;;19.30;41.60;;;;;;5039703;28;20500;-71
2021/03/18 12:39:07;;;;;;;1.60;1.50;;;19.30;41.70;;;;;;5049330;28;20478;-71
2021/03/18 12:41:34;;;;;;;0.80;0.80;;;19.30;41.70;;;;;;5044260;28;20497;-70
2021/03/18 12:44:00;;;;;;;1.73;1.10;;;19.30;41.70;;;;;;5045462;28;20477;-71
2021/03/18 12:46:27;;;;;;;2.10;1.23;;;19.30;41.90;;;;;;5046669;28;21558;-71
2021/03/18 12:48:54;;;;;;;1.10;1.00;;;19.30;42.20;;;;;;5037542;28;20481;-71
2021/03/18 12:51:21;;;;;;;1.27;1.10;;;19.30;42.10;;;;;;5061593;28;20488;-71
2021/03/18 12:53:47;;;;;;;1.13;0.90;;;19.30;42.20;;;;;;5050882;28;20551;-71